Time;durP1;ratioP1;P1;durP2;ratioP2;P2;SDS_P1;SDS_P2;PMS_P1;PMS_P2;Temp;Humidity;BMP_temperature;BMP_pressure;BME280_temperature;BME280_humidity;BME280_pressure;Samples;Min_cycle;Max_cycle;Signal;HPM_P1;HPM_P2
2023/12/19 00:00:05;;;;;;;1.03;0.97;;;7.40;99.90;6.50;100298;;;;575138;247;24075;-88
2023/12/19 00:02:33;;;;;;;0.70;0.70;;;7.30;99.90;6.50;100303;;;;575367;245;24070;-86
2023/12/19 00:05:01;;;;;;;0.63;0.50;;;7.40;99.90;6.50;100294;;;;571897;246;24076;-86
2023/12/19 00:07:33;;;;;;;1.00;1.00;;;7.40;99.90;6.60;100295;;;;585199;246;24067;-86
2023/12/19 00:09:59;;;;;;;0.63;0.63;;;7.40;99.90;6.60;100282;;;;581688;242;24126;-86
2023/12/19 00:12:24;;;;;;;0.70;0.67;;;7.40;99.90;6.60;100273;;;;579024;243;24147;-87
2023/12/19 00:14:52;;;;;;;1.33;0.73;;;7.40;99.90;6.60;100264;;;;594364;237;24104;-89
2023/12/19 00:17:20;;;;;;;0.63;0.63;;;7.40;99.90;6.60;100267;;;;594331;237;24074;-88
2023/12/19 00:19:48;;;;;;;1.00;0.70;;;7.40;99.90;6.60;100255;;;;594344;241;24058;-88
2023/12/19 00:22:17;;;;;;;1.10;1.07;;;7.40;99.90;6.60;100253;;;;585174;242;24063;-89
2023/12/19 00:24:45;;;;;;;0.80;0.80;;;7.40;99.90;6.60;100243;;;;594124;242;24132;-87
2023/12/19 00:27:16;;;;;;;0.63;0.63;;;7.40;99.90;6.60;100246;;;;594332;242;24069;-88
2023/12/19 00:29:41;;;;;;;0.70;0.70;;;7.40;99.90;6.60;100236;;;;585125;242;24097;-87
2023/12/19 00:32:09;;;;;;;1.03;0.83;;;7.40;99.90;6.60;100231;;;;594801;242;24064;-89
2023/12/19 00:34:40;;;;;;;0.90;0.90;;;7.40;99.90;6.60;100224;;;;594846;242;24076;-89
2023/12/19 00:37:09;;;;;;;0.70;0.70;;;7.40;99.90;6.60;100221;;;;585347;242;24081;-88
2023/12/19 00:39:33;;;;;;;0.50;0.40;;;7.40;99.90;6.60;100217;;;;585110;242;24093;-87
2023/12/19 00:42:00;;;;;;;0.57;0.40;;;7.40;99.90;6.60;100225;;;;594055;242;24068;-88
2023/12/19 00:44:28;;;;;;;0.90;0.90;;;7.40;99.90;6.60;100230;;;;584974;242;24069;-88
2023/12/19 00:46:57;;;;;;;0.53;0.53;;;7.40;99.90;6.60;100224;;;;590709;239;24090;-88
2023/12/19 00:49:26;;;;;;;1.17;0.87;;;7.50;99.90;6.70;100239;;;;584795;242;24130;-88
2023/12/19 00:51:54;;;;;;;0.63;0.60;;;7.50;99.90;6.70;100237;;;;584849;242;24079;-87
2023/12/19 00:54:26;;;;;;;0.50;0.50;;;7.50;99.90;6.70;100222;;;;584881;242;24085;-89
2023/12/19 00:56:53;;;;;;;0.50;0.50;;;7.50;99.90;6.70;100220;;;;584105;242;24076;-88
2023/12/19 00:59:21;;;;;;;0.93;0.93;;;7.50;99.90;6.70;100220;;;;593057;242;24080;-89
2023/12/19 01:01:49;;;;;;;1.30;0.93;;;7.60;99.90;6.70;100234;;;;577061;242;35040;-88
2023/12/19 01:04:19;;;;;;;0.93;0.77;;;7.60;99.90;6.70;100220;;;;593362;242;24048;-87
2023/12/19 01:06:49;;;;;;;0.60;0.60;;;7.60;99.90;6.70;100215;;;;585105;242;24139;-90
2023/12/19 01:09:13;;;;;;;0.50;0.50;;;7.60;99.90;6.70;100216;;;;592820;242;24097;-87
2023/12/19 01:11:41;;;;;;;1.80;0.47;;;7.60;99.90;6.70;100208;;;;582133;242;24058;-88
2023/12/19 01:14:09;;;;;;;0.70;0.70;;;7.60;99.90;6.70;100209;;;;588880;239;35127;-89
2023/12/19 01:16:37;;;;;;;0.83;0.83;;;7.60;99.90;6.70;100210;;;;595065;241;24099;-88
2023/12/19 01:19:09;;;;;;;0.70;0.70;;;7.60;99.90;6.70;100205;;;;593985;237;24127;-87
2023/12/19 01:21:36;;;;;;;0.70;0.70;;;7.60;99.90;6.80;100209;;;;594302;241;24079;-88
2023/12/19 01:24:04;;;;;;;0.40;0.40;;;7.60;99.90;6.70;100191;;;;582263;241;24075;-87
2023/12/19 01:26:30;;;;;;;0.80;0.50;;;7.60;99.90;6.70;100190;;;;593161;241;24079;-87
2023/12/19 01:29:01;;;;;;;0.40;0.40;;;7.60;99.90;6.70;100176;;;;584413;241;24072;-89
2023/12/19 01:31:26;;;;;;;0.83;0.73;;;7.60;99.90;6.70;100172;;;;584526;241;24124;-87
2023/12/19 01:33:57;;;;;;;0.70;0.70;;;7.60;99.90;6.80;100178;;;;594375;238;24053;-88
2023/12/19 01:36:26;;;;;;;0.77;0.40;;;7.60;99.90;6.80;100192;;;;584300;242;24073;-87
2023/12/19 01:38:51;;;;;;;1.20;0.70;;;7.60;99.90;6.80;100198;;;;593233;242;24103;-88
2023/12/19 01:41:22;;;;;;;0.70;0.47;;;7.60;99.90;6.80;100188;;;;593889;237;24090;-88
2023/12/19 01:43:52;;;;;;;0.60;0.60;;;7.60;99.90;6.90;100200;;;;584815;242;24075;-87
2023/12/19 01:46:20;;;;;;;0.43;0.43;;;7.70;99.90;6.90;100202;;;;583685;242;24087;-89
2023/12/19 01:48:47;;;;;;;0.40;0.40;;;7.70;99.90;6.90;100198;;;;584806;242;24138;-86
2023/12/19 01:51:20;;;;;;;0.50;0.50;;;7.70;99.90;6.90;100201;;;;594806;242;24074;-88
2023/12/19 01:53:47;;;;;;;1.70;0.63;;;7.70;99.90;6.90;100189;;;;584876;242;24148;-88
2023/12/19 01:56:15;;;;;;;1.23;1.13;;;7.70;99.90;6.90;100189;;;;585248;242;24117;-89
2023/12/19 01:58:41;;;;;;;0.50;0.50;;;7.70;99.90;6.90;100176;;;;593840;242;24089;-88
2023/12/19 02:01:13;;;;;;;0.87;0.80;;;7.70;99.90;6.90;100180;;;;583263;242;24089;-87
2023/12/19 02:03:38;;;;;;;0.40;0.40;;;7.70;99.90;6.80;100188;;;;584223;242;24075;-88
2023/12/19 02:06:10;;;;;;;0.43;0.43;;;7.70;99.90;6.80;100175;;;;586833;242;24098;-89
2023/12/19 02:08:34;;;;;;;1.33;1.10;;;7.70;99.90;6.80;100158;;;;593004;242;24096;-88
2023/12/19 02:11:05;;;;;;;0.70;0.70;;;7.70;99.90;6.80;100161;;;;593502;237;24083;-87
2023/12/19 02:13:33;;;;;;;0.67;0.67;;;7.70;99.90;6.80;100157;;;;582715;242;24091;-86
2023/12/19 02:15:58;;;;;;;2.43;1.10;;;7.70;99.90;6.80;100149;;;;592938;242;24176;-88
2023/12/19 02:18:26;;;;;;;0.83;0.83;;;7.70;99.90;6.90;100154;;;;593530;242;24079;-88
2023/12/19 02:20:54;;;;;;;1.00;1.00;;;7.70;99.90;6.80;100156;;;;594035;242;24069;-87
2023/12/19 02:23:23;;;;;;;1.00;0.90;;;7.70;99.90;6.80;100143;;;;593925;237;24075;-87
2023/12/19 02:25:51;;;;;;;0.90;0.90;;;7.70;99.90;6.80;100136;;;;594340;239;24056;-87
2023/12/19 02:28:23;;;;;;;1.03;1.03;;;7.60;99.90;6.80;100148;;;;583538;241;24039;-88
2023/12/19 02:30:47;;;;;;;1.03;0.87;;;7.70;99.90;6.90;100148;;;;584948;241;24094;-88
2023/12/19 02:33:15;;;;;;;1.00;1.00;;;7.70;99.90;6.80;100145;;;;582592;241;24050;-88
2023/12/19 02:35:43;;;;;;;3.90;0.90;;;7.70;99.90;6.80;100145;;;;582761;241;24134;-88
2023/12/19 02:38:11;;;;;;;1.23;1.13;;;7.70;99.90;6.80;100147;;;;593735;237;24179;-89
2023/12/19 02:40:43;;;;;;;0.93;0.93;;;7.60;99.90;6.80;100125;;;;594089;237;24088;-88
2023/12/19 02:43:08;;;;;;;1.30;1.20;;;7.60;99.90;6.80;100114;;;;584620;241;24079;-90
2023/12/19 02:45:35;;;;;;;1.27;1.20;;;7.60;99.90;6.80;100101;;;;594011;242;24112;-88
2023/12/19 02:48:07;;;;;;;0.83;0.83;;;7.60;99.90;6.70;100088;;;;594391;242;24071;-87
2023/12/19 02:50:31;;;;;;;1.03;1.03;;;7.60;99.90;6.70;100085;;;;584334;242;24064;-88
2023/12/19 02:53:00;;;;;;;1.10;1.10;;;7.50;99.90;6.70;100090;;;;594341;241;24053;-86
2023/12/19 02:55:28;;;;;;;0.83;0.80;;;7.50;99.90;6.70;100078;;;;585297;242;24087;-86
2023/12/19 02:57:56;;;;;;;0.87;0.87;;;7.50;99.90;6.60;100074;;;;585850;242;24060;-86
2023/12/19 03:00:24;;;;;;;2.97;1.53;;;7.40;99.90;6.60;100076;;;;585410;242;24053;-86
2023/12/19 03:02:58;;;;;;;2.23;1.40;;;7.40;99.90;6.60;100062;;;;594513;238;24072;-86
2023/12/19 03:05:21;;;;;;;1.67;1.60;;;7.40;99.90;6.50;100050;;;;582703;242;24185;-88
2023/12/19 03:07:49;;;;;;;1.63;1.53;;;7.30;99.90;6.50;100058;;;;582554;242;24053;-88
2023/12/19 03:10:17;;;;;;;2.37;2.07;;;7.30;99.90;6.40;100055;;;;593904;238;24080;-86
2023/12/19 03:12:45;;;;;;;2.47;1.57;;;7.30;99.90;6.40;100055;;;;594104;237;24063;-89
2023/12/19 03:15:16;;;;;;;3.13;1.77;;;7.20;99.90;6.40;100047;;;;594000;242;24076;-87
2023/12/19 03:17:44;;;;;;;1.63;1.27;;;7.20;99.90;6.30;100035;;;;594549;242;24078;-87
2023/12/19 03:20:12;;;;;;;2.00;1.67;;;7.20;99.90;6.30;100054;;;;594675;242;24043;-87
2023/12/19 03:22:40;;;;;;;2.70;2.50;;;7.10;99.90;6.30;100061;;;;589447;242;35165;-89
2023/12/19 03:25:11;;;;;;;1.63;1.60;;;7.10;99.90;6.30;100051;;;;594738;237;24055;-88
2023/12/19 03:27:35;;;;;;;1.53;1.43;;;7.10;99.90;6.40;100052;;;;584794;242;24097;-89
2023/12/19 03:30:06;;;;;;;1.57;1.47;;;7.20;99.90;6.40;100045;;;;594397;242;24081;-88
2023/12/19 03:32:34;;;;;;;1.27;1.17;;;7.20;99.90;6.40;100032;;;;582328;242;24080;-89
2023/12/19 03:35:00;;;;;;;1.83;1.73;;;7.20;99.90;6.40;100026;;;;582849;242;24090;-88
2023/12/19 03:37:31;;;;;;;1.10;1.10;;;7.20;99.90;6.40;100028;;;;594484;239;24101;-88
2023/12/19 03:39:56;;;;;;;1.73;1.63;;;7.30;99.90;6.50;100036;;;;592041;241;24065;-88
2023/12/19 03:42:24;;;;;;;1.50;0.93;;;7.30;99.90;6.50;100039;;;;594282;237;24065;-88
2023/12/19 03:44:53;;;;;;;0.97;0.97;;;7.30;99.90;6.50;100029;;;;594489;241;24060;-87
2023/12/19 03:47:22;;;;;;;0.87;0.87;;;7.30;99.90;6.60;100031;;;;594307;241;24096;-88
2023/12/19 03:49:50;;;;;;;2.97;1.83;;;7.40;99.90;6.60;100019;;;;593802;241;24051;-87
2023/12/19 03:52:20;;;;;;;1.30;1.20;;;7.40;99.90;6.60;100028;;;;594259;237;24115;-89
2023/12/19 03:54:45;;;;;;;1.07;1.07;;;7.40;99.90;6.60;100027;;;;584608;241;24091;-87
2023/12/19 03:57:13;;;;;;;1.20;1.10;;;7.50;99.90;6.60;100022;;;;584505;242;24067;-88
2023/12/19 03:59:45;;;;;;;1.50;1.40;;;7.50;99.90;6.70;100011;;;;593794;242;24065;-88
2023/12/19 04:02:12;;;;;;;1.57;1.47;;;7.50;99.90;6.70;100016;;;;579431;242;35137;-87
2023/12/19 04:04:37;;;;;;;1.87;1.33;;;7.50;99.90;6.70;100022;;;;584729;242;24133;-88
2023/12/19 04:07:05;;;;;;;1.30;1.20;;;7.60;99.90;6.70;100027;;;;585535;242;25136;-87
2023/12/19 04:09:35;;;;;;;1.43;1.33;;;7.60;99.90;6.80;100038;;;;584768;242;24090;-88
2023/12/19 04:12:02;;;;;;;1.43;1.33;;;7.60;99.90;6.80;100038;;;;584640;242;24065;-88
2023/12/19 04:14:33;;;;;;;0.70;0.70;;;7.60;99.90;6.80;100044;;;;584992;242;24060;-88
2023/12/19 04:16:58;;;;;;;0.90;0.90;;;7.60;99.90;6.80;100037;;;;584367;242;24072;-88
2023/12/19 04:19:27;;;;;;;0.93;0.93;;;7.60;99.90;6.80;100020;;;;584528;242;24073;-88
2023/12/19 04:21:57;;;;;;;2.03;1.50;;;7.60;99.90;6.80;100034;;;;584576;242;24090;-89
2023/12/19 04:24:25;;;;;;;1.43;1.33;;;7.60;99.90;6.80;100041;;;;594292;237;24071;-88
2023/12/19 04:26:54;;;;;;;1.23;1.03;;;7.60;99.90;6.80;100016;;;;593790;242;24081;-88
2023/12/19 04:29:20;;;;;;;1.37;1.00;;;7.70;99.90;6.80;100017;;;;584906;242;24081;-88
2023/12/19 04:31:51;;;;;;;1.00;0.90;;;7.60;99.90;6.80;100024;;;;582535;242;24080;-87
2023/12/19 04:34:16;;;;;;;0.70;0.70;;;7.60;99.90;6.70;100021;;;;594180;237;24120;-88
2023/12/19 04:36:45;;;;;;;0.80;0.80;;;7.50;99.90;6.70;100016;;;;585422;242;24060;-87
2023/12/19 04:39:12;;;;;;;1.63;1.30;;;7.50;99.90;6.70;100009;;;;594619;242;24022;-88
2023/12/19 04:41:44;;;;;;;0.70;0.70;;;7.50;99.90;6.60;100007;;;;585302;242;24065;-89
2023/12/19 04:44:12;;;;;;;9.23;1.40;;;7.50;99.90;6.60;100014;;;;593930;242;24163;-87
2023/12/19 04:46:38;;;;;;;1.07;1.00;;;7.40;99.90;6.60;100007;;;;594685;241;24101;-88
2023/12/19 04:49:06;;;;;;;1.27;1.10;;;7.40;99.90;6.60;100001;;;;585658;240;24079;-88
2023/12/19 04:51:34;;;;;;;1.10;1.10;;;7.40;99.90;6.60;99998;;;;595731;241;24067;-89
2023/12/19 04:54:06;;;;;;;0.80;0.80;;;7.40;99.90;6.60;99984;;;;584865;241;24062;-88
2023/12/19 04:56:30;;;;;;;1.20;1.00;;;7.50;99.90;6.60;99979;;;;585377;241;24104;-88
2023/12/19 04:58:58;;;;;;;1.20;1.00;;;7.50;99.90;6.70;99981;;;;586051;241;24175;-87
2023/12/19 05:01:26;;;;;;;1.17;1.17;;;7.50;99.90;6.70;99981;;;;585322;241;24088;-88
2023/12/19 05:03:54;;;;;;;0.80;0.80;;;7.50;99.90;6.70;99984;;;;595201;237;24096;-88
2023/12/19 05:06:23;;;;;;;1.20;1.10;;;7.50;99.90;6.70;99990;;;;586255;241;24066;-87
2023/12/19 05:08:53;;;;;;;2.67;1.33;;;7.50;99.90;6.70;99986;;;;585326;242;24075;-89
2023/12/19 05:11:18;;;;;;;3.27;1.33;;;7.50;99.90;6.70;99978;;;;585228;242;24136;-88
2023/12/19 05:13:46;;;;;;;1.37;1.20;;;7.60;99.90;6.80;99977;;;;594287;242;24059;-87
2023/12/19 05:16:21;;;;;;;1.13;1.13;;;7.60;99.90;6.80;99977;;;;582735;242;24114;-89
2023/12/19 05:18:46;;;;;;;1.10;1.10;;;7.60;99.90;6.80;99972;;;;584876;242;24072;-88
2023/12/19 05:21:14;;;;;;;1.43;1.33;;;7.60;99.90;6.90;99970;;;;584820;242;24055;-88
2023/12/19 05:23:45;;;;;;;1.50;1.40;;;7.70;99.90;6.90;99983;;;;593399;242;24153;-88
2023/12/19 05:26:10;;;;;;;1.63;1.53;;;7.70;99.90;6.90;99997;;;;583726;242;24087;-87
2023/12/19 05:28:38;;;;;;;2.43;2.07;;;7.70;99.90;6.90;100007;;;;584604;242;24052;-87
2023/12/19 05:31:10;;;;;;;0.97;0.90;;;7.70;99.90;7.00;100019;;;;584153;242;24079;-93
2023/12/19 05:33:34;;;;;;;1.73;1.63;;;7.80;99.90;7.00;99996;;;;583984;242;24120;-89
2023/12/19 05:36:02;;;;;;;1.50;1.40;;;7.80;99.90;7.00;99997;;;;585024;242;24055;-89
2023/12/19 05:38:33;;;;;;;2.50;1.57;;;7.80;99.90;7.00;100003;;;;585227;242;24091;-90
2023/12/19 05:41:02;;;;;;;3.50;2.85;;;7.80;99.90;7.00;100007;;;;579620;242;35240;-88
2023/12/19 05:43:34;;;;;;;1.87;1.77;;;7.80;99.90;7.00;100003;;;;593828;242;24080;-88
2023/12/19 05:46:02;;;;;;;2.07;1.97;;;7.80;99.90;7.00;100007;;;;593719;241;24071;-86
2023/12/19 05:48:30;;;;;;;2.07;1.90;;;7.80;99.90;7.00;100011;;;;584757;242;24051;-87
2023/12/19 05:50:59;;;;;;;1.57;1.47;;;7.80;99.90;6.90;100005;;;;593797;238;24040;-86
2023/12/19 05:53:29;;;;;;;1.80;1.70;;;7.70;99.90;6.90;100013;;;;594391;242;24098;-86
2023/12/19 05:55:57;;;;;;;1.93;1.70;;;7.70;99.90;6.80;100008;;;;584374;242;24087;-86
2023/12/19 05:58:21;;;;;;;3.43;2.80;;;7.60;99.90;6.80;100009;;;;587881;242;35194;-90
2023/12/19 06:00:49;;;;;;;3.23;2.13;;;7.60;99.90;6.80;100016;;;;593502;237;24071;-88
2023/12/19 06:03:17;;;;;;;2.47;1.80;;;7.60;99.90;6.70;100022;;;;585412;241;24063;-89
2023/12/19 06:05:45;;;;;;;4.27;1.80;;;7.60;99.90;6.70;100021;;;;594146;237;24056;-88
2023/12/19 06:08:13;;;;;;;1.10;1.00;;;7.50;99.90;6.70;100020;;;;585756;241;24064;-88
2023/12/19 06:10:41;;;;;;;4.47;2.17;;;7.50;99.90;6.70;100025;;;;594149;241;24055;-89
2023/12/19 06:13:09;;;;;;;1.93;1.83;;;7.50;99.90;6.70;100020;;;;594136;241;24058;-90
2023/12/19 06:15:37;;;;;;;1.43;1.03;;;7.50;99.90;6.70;100023;;;;593976;241;25133;-89
2023/12/19 06:18:05;;;;;;;2.20;1.60;;;7.50;99.90;6.70;100019;;;;594309;237;24072;-90
2023/12/19 06:20:33;;;;;;;1.30;1.30;;;7.40;99.90;6.60;100013;;;;585219;242;24060;-87
2023/12/19 06:23:00;;;;;;;2.13;1.50;;;7.40;99.90;6.60;100017;;;;594059;237;24078;-88
2023/12/19 06:25:32;;;;;;;1.33;1.23;;;7.40;99.90;6.60;100019;;;;593308;242;24087;-88
2023/12/19 06:27:56;;;;;;;1.57;1.40;;;7.40;99.90;6.60;100023;;;;584052;242;24094;-88
2023/12/19 06:30:24;;;;;;;1.47;1.20;;;7.40;99.90;6.60;100011;;;;581990;242;24069;-87
2023/12/19 06:32:52;;;;;;;1.83;1.50;;;7.40;99.90;6.60;100004;;;;594082;242;24076;-89
2023/12/19 06:35:24;;;;;;;1.03;0.90;;;7.40;99.90;6.60;100012;;;;593925;237;24130;-89
2023/12/19 06:37:53;;;;;;;1.00;1.00;;;7.40;99.90;6.60;100014;;;;584244;242;24146;-87
2023/12/19 06:40:17;;;;;;;0.90;0.90;;;7.40;99.90;6.60;100016;;;;592956;241;24083;-88
2023/12/19 06:42:49;;;;;;;1.17;1.17;;;7.40;99.90;6.60;100000;;;;584753;242;24047;-89
2023/12/19 06:45:13;;;;;;;0.97;0.97;;;7.40;99.90;6.60;99980;;;;581484;242;24100;-88
2023/12/19 06:47:45;;;;;;;1.43;1.10;;;7.40;99.90;6.60;99986;;;;583772;242;24080;-89
2023/12/19 06:50:12;;;;;;;0.50;0.50;;;7.40;99.90;6.60;99987;;;;583851;242;24136;-87
2023/12/19 06:52:37;;;;;;;0.90;0.90;;;7.40;99.90;6.60;99999;;;;584271;242;24093;-86
2023/12/19 06:55:05;;;;;;;2.13;1.10;;;7.40;99.90;6.60;99979;;;;582148;242;24071;-87
2023/12/19 06:57:36;;;;;;;1.70;1.30;;;7.40;99.90;6.60;99975;;;;584451;242;24084;-87
2023/12/19 07:00:01;;;;;;;1.47;1.03;;;7.40;99.90;6.60;99963;;;;593240;238;24074;-88
2023/12/19 07:02:29;;;;;;;1.13;0.83;;;7.40;99.90;6.60;99959;;;;593755;242;25147;-87
2023/12/19 07:04:57;;;;;;;0.83;0.83;;;7.40;99.90;6.60;99974;;;;584840;242;24076;-89
2023/12/19 07:07:25;;;;;;;0.67;0.67;;;7.40;99.90;6.60;99961;;;;593664;242;24062;-88
2023/12/19 07:09:53;;;;;;;0.67;0.67;;;7.40;99.90;6.60;99972;;;;581928;242;24068;-88
2023/12/19 07:12:21;;;;;;;1.33;0.80;;;7.40;99.90;6.60;99978;;;;593671;238;24063;-89
2023/12/19 07:14:49;;;;;;;0.67;0.67;;;7.40;99.90;6.60;99977;;;;594963;241;24151;-88
2023/12/19 07:17:17;;;;;;;2.87;1.20;;;7.40;99.90;6.60;99973;;;;594397;241;24121;-88
2023/12/19 07:19:45;;;;;;;0.77;0.77;;;7.40;99.90;6.60;99979;;;;585108;241;24137;-87
2023/12/19 07:22:15;;;;;;;0.80;0.77;;;7.40;99.90;6.60;99968;;;;588432;241;24055;-88
2023/12/19 07:24:43;;;;;;;0.63;0.63;;;7.40;99.90;6.60;99963;;;;585594;241;24087;-88
2023/12/19 07:27:11;;;;;;;0.30;0.30;;;7.40;99.90;6.60;99973;;;;594842;241;24072;-87
2023/12/19 07:29:42;;;;;;;1.07;0.93;;;7.40;99.90;6.60;99967;;;;594911;241;24098;-87
2023/12/19 07:32:10;;;;;;;0.57;0.57;;;7.40;99.90;6.60;99978;;;;585737;242;24062;-87
2023/12/19 07:34:35;;;;;;;1.13;0.90;;;7.40;99.90;6.60;99990;;;;585433;242;24057;-88
2023/12/19 07:37:03;;;;;;;0.77;0.77;;;7.40;99.90;6.60;99976;;;;595455;242;24059;-87
2023/12/19 07:39:31;;;;;;;0.60;0.60;;;7.40;99.90;6.60;99983;;;;585715;242;24094;-86
2023/12/19 07:41:59;;;;;;;1.00;0.90;;;7.40;99.90;6.70;99996;;;;583346;242;24060;-86
2023/12/19 07:44:27;;;;;;;0.60;0.60;;;7.40;99.90;6.60;99989;;;;595067;242;24059;-88
2023/12/19 07:46:58;;;;;;;1.10;1.00;;;7.40;99.90;6.60;99983;;;;585719;242;24061;-86
2023/12/19 07:49:25;;;;;;;1.20;0.90;;;7.40;99.90;6.60;99972;;;;593881;242;24082;-87
2023/12/19 07:51:55;;;;;;;0.60;0.60;;;7.40;99.90;6.60;99976;;;;585020;242;24070;-89
2023/12/19 07:54:21;;;;;;;0.70;0.70;;;7.40;99.90;6.60;99979;;;;582403;242;24121;-89
2023/12/19 07:56:52;;;;;;;0.77;0.50;;;7.40;99.90;6.70;99981;;;;594020;241;24053;-88
2023/12/19 07:59:18;;;;;;;0.70;0.70;;;7.40;99.90;6.60;99981;;;;584510;242;24098;-89
2023/12/19 08:01:49;;;;;;;1.00;1.00;;;7.40;99.90;6.70;99994;;;;594070;237;24070;-87
2023/12/19 08:04:20;;;;;;;2.30;0.90;;;7.40;99.90;6.70;100000;;;;593582;242;25114;-88
2023/12/19 08:06:47;;;;;;;0.67;0.67;;;7.40;99.90;6.70;99993;;;;586695;242;24057;-87
2023/12/19 08:09:19;;;;;;;0.40;0.40;;;7.40;99.90;6.70;100009;;;;584693;242;24091;-88
2023/12/19 08:11:58;;;;;;;0.53;0.53;;;7.50;99.90;6.70;100006;;;;584695;242;24074;-89
2023/12/19 08:14:22;;;;;;;0.80;0.80;;;7.50;99.90;6.70;100001;;;;584270;242;24078;-88
2023/12/19 08:16:51;;;;;;;0.90;0.90;;;7.50;99.90;6.70;100005;;;;584688;242;24076;-89
2023/12/19 08:19:23;;;;;;;0.90;0.90;;;7.50;99.90;6.80;99987;;;;584937;242;24071;-89
2023/12/19 08:21:57;;;;;;;0.67;0.67;;;7.50;99.90;6.80;99976;;;;582109;242;24081;-88
2023/12/19 08:24:25;;;;;;;0.97;0.90;;;7.50;99.90;6.80;99974;;;;593826;240;24079;-89
2023/12/19 08:26:54;;;;;;;0.40;0.40;;;7.50;99.90;6.80;99975;;;;585221;241;24072;-88
2023/12/19 08:29:19;;;;;;;0.87;0.83;;;7.60;99.90;6.80;99973;;;;586007;241;24083;-88
2023/12/19 08:31:50;;;;;;;4.80;0.90;;;7.60;99.90;6.80;99978;;;;585588;241;24080;-89
2023/12/19 08:34:19;;;;;;;0.63;0.63;;;7.60;99.90;6.80;99971;;;;584656;241;24073;-89
2023/12/19 08:36:57;;;;;;;;;;;;;;;;;;;;;
2023/12/19 08:39:17;;;;;;;0.50;0.50;;;7.60;99.90;6.80;99957;;;;585061;241;24139;-89
2023/12/19 08:41:51;;;;;;;1.37;0.83;;;7.60;99.90;6.80;99955;;;;586426;241;24054;-88
2023/12/19 08:44:16;;;;;;;1.13;0.70;;;7.60;99.90;6.80;99966;;;;585490;242;24138;-87
2023/12/19 08:46:44;;;;;;;0.70;0.70;;;7.60;99.90;6.90;99961;;;;585975;242;24078;-89
2023/12/19 08:49:18;;;;;;;1.27;1.20;;;7.60;99.90;6.90;99965;;;;585317;242;24054;-90
2023/12/19 08:51:49;;;;;;;0.57;0.57;;;7.70;99.90;6.90;99963;;;;585081;242;24092;-90
2023/12/19 08:54:14;;;;;;;1.03;0.77;;;7.70;99.90;6.90;99953;;;;585002;242;24077;-90
2023/12/19 08:56:45;;;;;;;4.97;0.77;;;7.70;99.90;7.00;99950;;;;593618;241;24073;-90
2023/12/19 08:59:10;;;;;;;1.73;0.70;;;7.70;99.90;7.00;99958;;;;593861;242;24086;-90
2023/12/19 09:01:40;;;;;;;0.87;0.70;;;7.70;99.90;7.00;99961;;;;585161;241;24064;-90
2023/12/19 09:04:10;;;;;;;0.77;0.77;;;7.80;99.90;7.00;99962;;;;594392;242;24076;-89
2023/12/19 09:06:42;;;;;;;0.77;0.77;;;7.80;99.90;7.10;99962;;;;585032;242;24078;-89
2023/12/19 09:09:12;;;;;;;0.77;0.70;;;7.80;99.90;7.10;99967;;;;594120;238;24088;-89
2023/12/19 09:11:41;;;;;;;0.63;0.63;;;7.80;99.90;7.10;99966;;;;585292;242;24135;-88
2023/12/19 09:14:11;;;;;;;0.80;0.80;;;7.80;99.90;7.10;99977;;;;594504;242;24120;-91
2023/12/19 09:16:49;;;;;;;1.10;0.70;;;7.80;99.90;7.10;99988;;;;585908;242;24063;-89
2023/12/19 09:19:22;;;;;;;0.90;0.90;;;7.80;99.90;7.10;99994;;;;585376;242;24078;-89
2023/12/19 09:22:05;;;;;;;0.63;0.63;;;7.80;99.90;7.10;99982;;;;584996;242;25121;-88
2023/12/19 09:27:07;;;;;;;0.63;0.63;;;7.90;99.90;7.20;99994;;;;593645;231;24083;-88
2023/12/19 09:29:40;;;;;;;0.70;0.70;;;7.90;99.90;7.20;100002;;;;575423;250;24118;-88
2023/12/19 09:32:10;;;;;;;0.63;0.63;;;8.00;99.90;7.20;99991;;;;585185;242;24087;-90
2023/12/19 09:34:39;;;;;;;0.70;0.70;;;8.00;99.90;7.20;100003;;;;584900;242;24152;-89
2023/12/19 09:37:05;;;;;;;0.97;0.80;;;8.00;99.90;7.20;99988;;;;584496;241;24095;-90
2023/12/19 09:39:46;;;;;;;0.93;0.93;;;8.00;99.90;7.20;99997;;;;566052;245;24081;-89
2023/12/19 09:42:11;;;;;;;0.80;0.73;;;8.00;99.90;7.20;99983;;;;585047;242;24080;-89
2023/12/19 09:44:40;;;;;;;0.80;0.80;;;8.00;99.90;7.20;99990;;;;574026;250;24188;-89
2023/12/19 09:47:10;;;;;;;0.73;0.73;;;8.00;99.90;7.30;99991;;;;585447;242;24072;-88
2023/12/19 09:49:41;;;;;;;2.97;1.17;;;8.00;99.90;7.30;99991;;;;584960;241;24117;-90
2023/12/19 09:52:08;;;;;;;1.00;0.90;;;8.00;99.90;7.30;99984;;;;584676;242;24155;-90
2023/12/19 09:54:41;;;;;;;1.47;1.00;;;8.00;99.90;7.30;99954;;;;586727;241;24069;-90
2023/12/19 09:57:05;;;;;;;0.83;0.83;;;8.10;99.90;7.30;99960;;;;563778;250;24141;-89
2023/12/19 09:59:35;;;;;;;0.90;0.90;;;8.10;99.90;7.30;99963;;;;584560;242;24076;-89
2023/12/19 10:02:16;;;;;;;2.87;1.33;;;8.10;99.90;7.30;99957;;;;573518;250;24122;-90
2023/12/19 10:04:40;;;;;;;1.33;1.23;;;8.10;99.90;7.40;99944;;;;584577;242;24085;-90
2023/12/19 10:07:14;;;;;;;1.03;0.97;;;8.10;99.90;7.50;99936;;;;573328;245;24137;-90
2023/12/19 10:10:03;;;;;;;2.20;1.67;;;8.20;99.90;7.50;99920;;;;586711;242;24020;-90
2023/12/19 10:12:36;;;;;;;1.37;1.27;;;8.20;99.90;7.60;99931;;;;593039;242;24040;-88
2023/12/19 10:15:15;;;;;;;3.20;1.40;;;8.30;99.90;7.60;99913;;;;572998;246;24129;-88
2023/12/19 10:18:12;;;;;;;3.33;1.60;;;8.30;99.90;7.60;99894;;;;587685;242;24019;-90
2023/12/19 10:20:37;;;;;;;1.50;1.37;;;8.30;99.90;7.60;99898;;;;575382;246;24085;-88
2023/12/19 10:23:06;;;;;;;1.53;1.20;;;8.30;99.90;7.50;99894;;;;575469;239;24163;-89
2023/12/19 10:25:37;;;;;;;1.63;1.43;;;8.30;99.90;7.50;99901;;;;575675;246;24093;-88
2023/12/19 10:28:09;;;;;;;4.37;1.20;;;8.20;99.90;7.50;99910;;;;596423;236;24044;-90
2023/12/19 10:30:36;;;;;;;1.43;1.33;;;8.30;99.90;7.60;99906;;;;574561;246;24079;-89
2023/12/19 10:35:44;;;;;;;1.80;1.27;;;8.40;99.90;7.70;99874;;;;583121;241;24094;-89
2023/12/19 10:38:12;;;;;;;2.57;1.73;;;8.40;99.90;7.70;99880;;;;588488;241;24039;-89
2023/12/19 10:40:36;;;;;;;1.83;1.73;;;8.40;99.90;7.70;99881;;;;581453;241;24069;-90
2023/12/19 10:43:08;;;;;;;1.73;1.60;;;8.40;99.90;7.80;99882;;;;586333;241;24058;-91
2023/12/19 10:45:36;;;;;;;2.13;1.80;;;8.50;99.90;7.80;99890;;;;584545;241;24062;-90
2023/12/19 10:48:01;;;;;;;3.20;2.10;;;8.50;99.90;7.80;99901;;;;593234;241;24036;-90
2023/12/19 10:50:29;;;;;;;2.77;2.47;;;8.60;99.90;7.80;99902;;;;574456;246;24085;-89
2023/12/19 10:53:03;;;;;;;2.40;2.20;;;8.60;99.90;7.80;99904;;;;578872;245;24073;-89
2023/12/19 10:55:34;;;;;;;2.93;1.93;;;8.60;99.90;7.90;99894;;;;593441;241;24040;-89
2023/12/19 10:58:03;;;;;;;4.50;2.40;;;8.60;99.90;7.90;99885;;;;573007;247;24071;-89
2023/12/19 11:00:30;;;;;;;2.90;1.63;;;8.60;99.90;7.90;99867;;;;583904;242;24086;-89
2023/12/19 11:03:16;;;;;;;2.90;1.63;;;8.60;99.90;7.90;99857;;;;583557;242;24100;-89
2023/12/19 11:05:47;;;;;;;2.20;1.30;;;8.60;99.90;7.80;99851;;;;583591;243;24046;-89
2023/12/19 11:08:18;;;;;;;2.10;1.33;;;8.60;99.90;7.80;99859;;;;583272;243;24139;-91
2023/12/19 11:10:57;;;;;;;1.60;1.50;;;8.60;99.90;7.80;99855;;;;571301;247;24076;-89
2023/12/19 11:13:31;;;;;;;1.97;1.50;;;8.60;99.90;7.90;99855;;;;582474;246;24073;-90
2023/12/19 11:15:56;;;;;;;2.33;1.50;;;8.60;99.90;7.90;99843;;;;572913;247;25171;-89
2023/12/19 11:18:45;;;;;;;1.60;1.50;;;8.60;99.90;7.90;99855;;;;578655;247;24091;-90
2023/12/19 11:21:42;;;;;;;1.50;1.47;;;8.60;99.90;7.80;99855;;;;578530;246;24134;-89
2023/12/19 11:24:27;;;;;;;1.63;1.53;;;8.60;99.90;7.80;99846;;;;585437;245;24136;-90
2023/12/19 11:26:50;;;;;;;1.27;1.10;;;8.60;99.90;7.80;99853;;;;577691;246;24086;-90
2023/12/19 11:29:50;;;;;;;1.37;1.30;;;8.60;99.90;7.80;99848;;;;587286;243;24097;-89
2023/12/19 11:32:29;;;;;;;1.53;1.43;;;8.50;99.90;7.80;99844;;;;577629;246;24074;-88
2023/12/19 11:35:18;;;;;;;6.23;2.17;;;8.50;99.90;7.90;99835;;;;575922;246;24071;-88
2023/12/19 11:37:48;;;;;;;2.57;1.97;;;8.60;99.90;7.90;99821;;;;587331;243;24039;-89
2023/12/19 11:40:53;;;;;;;1.80;1.60;;;8.70;99.90;7.90;99813;;;;577808;246;24055;-90
2023/12/19 11:43:33;;;;;;;2.70;1.57;;;8.70;99.90;7.90;99806;;;;576320;246;24158;-89